CheckWX is a tool to help pilots better visualize weather data.  It is not intended as a substitute for an official pre-flight weather briefing.

13:53:27 UTC

KRUG METAR
Rugby Municipal Airport
Rugby, North Dakota, USA
Current

18 mins ago

KRUG 281335Z AUTO 12005KT 10SM CLR M01/M03 A2988 RMK AO2
Observed
Mar-28 @ 13:35 UTC
Wind
  • 120° at 5 KTS
Visibility
10 SM
Flight Rules
VFR
Cloud Levels
  • Clear skies
Temperature
-1°C / 30°F
Dewpoint
-3°C / 27°F
Humidity
86%
Altimeter
29.88" Hg
Pressure
1011.82 hPa
Previous

38 mins ago

KRUG 281315Z AUTO 12007KT 10SM CLR M03/M03 A2987 RMK AO2
Observed
Mar-28 @ 13:15 UTC
Wind
  • 120° at 7 KTS
Visibility
10 SM
Flight Rules
VFR
Cloud Levels
  • Clear skies
Temperature
-3°C / 27°F
Dewpoint
-3°C / 27°F
Humidity
100%
Altimeter
29.87" Hg
Pressure
1011.52 hPa
Previous

58 mins ago

KRUG 281255Z AUTO 12006KT 10SM CLR M03/M04 A2988 RMK AO2
Observed
Mar-28 @ 12:55 UTC
Wind
  • 120° at 6 KTS
Visibility
10 SM
Flight Rules
VFR
Cloud Levels
  • Clear skies
Temperature
-3°C / 27°F
Dewpoint
-4°C / 25°F
Humidity
93%
Altimeter
29.88" Hg
Pressure
1011.82 hPa